createdAt,value
2018-12-19T00:00:39.906Z,941.69
2018-12-19T00:01:48.038Z,941.68
2018-12-19T00:02:55.978Z,941.69
2018-12-19T00:04:04.042Z,941.66
2018-12-19T00:05:12.091Z,941.60
2018-12-19T00:06:20.139Z,941.54
2018-12-19T00:07:28.303Z,941.54
2018-12-19T00:08:36.242Z,941.51
2018-12-19T00:09:44.306Z,941.50
2018-12-19T00:10:52.360Z,941.53
2018-12-19T00:12:00.542Z,941.50
2018-12-19T00:13:08.556Z,941.50
2018-12-19T00:14:16.519Z,941.53
2018-12-19T00:15:24.554Z,941.68
2018-12-19T00:16:32.623Z,941.69
2018-12-19T00:17:40.766Z,941.69
2018-12-19T00:18:48.713Z,941.66
2018-12-19T00:19:56.795Z,941.65
2018-12-19T00:21:04.824Z,941.65
2018-12-19T00:22:12.873Z,941.64
2018-12-19T00:23:21.020Z,941.64
2018-12-19T00:24:28.978Z,941.57
2018-12-19T00:25:37.030Z,941.54
2018-12-19T00:26:46.502Z,941.50
2018-12-19T00:27:53.233Z,941.52
2018-12-19T00:29:01.284Z,941.57
2018-12-19T00:30:09.251Z,941.53
2018-12-19T00:31:17.302Z,941.58
2018-12-19T00:32:25.336Z,941.63
2018-12-19T00:33:33.403Z,941.52
2018-12-19T00:34:41.549Z,941.49
2018-12-19T00:35:49.511Z,941.47
2018-12-19T00:36:57.572Z,941.56
2018-12-19T00:38:05.599Z,941.55
2018-12-19T00:39:13.677Z,941.55
2018-12-19T00:40:21.808Z,941.56
2018-12-19T00:41:29.771Z,941.50
2018-12-19T00:42:37.889Z,941.54
2018-12-19T00:43:45.870Z,941.57
2018-12-19T00:44:53.913Z,941.58
2018-12-19T00:46:02.420Z,941.57
2018-12-19T00:47:10.026Z,941.56
2018-12-19T00:48:18.090Z,941.55
2018-12-19T00:49:26.131Z,941.56
2018-12-19T00:50:34.180Z,941.59
2018-12-19T00:51:42.331Z,941.50
2018-12-19T00:52:50.296Z,941.55
2018-12-19T00:53:58.347Z,941.58
2018-12-19T00:55:06.397Z,941.56
2018-12-19T00:56:14.426Z,941.48
2018-12-19T00:57:22.581Z,941.46
2018-12-19T00:58:30.544Z,941.50
2018-12-19T00:59:38.618Z,941.54
2018-12-19T01:00:46.659Z,941.54
2018-12-19T01:01:54.695Z,941.56
2018-12-19T01:03:02.864Z,941.51
2018-12-19T01:04:10.812Z,941.55
2018-12-19T01:05:18.854Z,941.59
2018-12-19T01:06:26.898Z,941.68
2018-12-19T01:07:35.041Z,941.58
2018-12-19T01:08:43.046Z,941.56
2018-12-19T01:09:51.070Z,941.57
2018-12-19T01:10:59.124Z,941.59
2018-12-19T01:12:07.198Z,941.58
2018-12-19T01:13:15.329Z,941.62
2018-12-19T01:14:23.290Z,941.61
2018-12-19T01:15:31.328Z,941.57
2018-12-19T01:16:39.382Z,941.59
2018-12-19T01:17:47.425Z,941.58
2018-12-19T01:18:55.547Z,941.50
2018-12-19T01:20:03.547Z,941.52
2018-12-19T01:21:11.599Z,941.58
2018-12-19T01:22:19.646Z,941.65
2018-12-19T01:23:27.789Z,941.61
2018-12-19T01:24:35.711Z,941.57
2018-12-19T01:25:43.799Z,941.54
2018-12-19T01:26:51.861Z,941.60
2018-12-19T01:28:00.000Z,941.76
2018-12-19T01:29:08.059Z,941.79
2018-12-19T01:30:16.028Z,941.76
2018-12-19T01:31:24.059Z,941.76
2018-12-19T01:32:32.116Z,941.77
2018-12-19T01:33:40.168Z,941.81
2018-12-19T01:34:48.310Z,941.82
2018-12-19T01:35:56.346Z,941.81
2018-12-19T01:37:04.326Z,941.85
2018-12-19T01:38:12.380Z,941.83
2018-12-19T01:39:22.523Z,941.78
2018-12-19T01:40:28.584Z,941.81
2018-12-19T01:41:36.548Z,941.81
2018-12-19T01:42:44.680Z,941.81
2018-12-19T01:43:52.630Z,941.85
2018-12-19T01:45:00.682Z,941.82
2018-12-19T01:46:09.001Z,941.88
2018-12-19T01:47:16.789Z,941.93
2018-12-19T01:48:24.841Z,941.93
2018-12-19T01:49:32.902Z,941.98
2018-12-19T01:50:40.969Z,941.99
2018-12-19T01:51:49.107Z,941.98
2018-12-19T01:52:57.061Z,941.94
2018-12-19T01:54:05.102Z,941.92
2018-12-19T01:55:13.173Z,941.92
2018-12-19T01:56:21.215Z,941.90
2018-12-19T01:57:29.355Z,941.90
2018-12-19T01:58:37.349Z,941.87
2018-12-19T01:59:45.339Z,941.84
2018-12-19T02:00:53.436Z,941.80
2018-12-19T02:02:01.488Z,941.80
2018-12-19T02:03:09.613Z,941.82
2018-12-19T02:04:17.582Z,941.82
2018-12-19T02:05:25.612Z,941.87
2018-12-19T02:06:33.693Z,941.87
2018-12-19T02:07:41.829Z,941.90
2018-12-19T02:08:49.785Z,941.93
2018-12-19T02:09:57.841Z,941.90
2018-12-19T02:11:05.870Z,941.87
2018-12-19T02:12:13.951Z,941.82
2018-12-19T02:13:22.086Z,941.74
2018-12-19T02:14:30.068Z,941.69
2018-12-19T02:15:38.108Z,941.75
2018-12-19T02:16:46.147Z,941.82
2018-12-19T02:17:54.207Z,941.77
2018-12-19T02:19:02.353Z,941.77
2018-12-19T02:20:10.296Z,941.72
2018-12-19T02:21:18.355Z,941.69
2018-12-19T02:22:26.412Z,941.71
2018-12-19T02:23:34.465Z,941.73
2018-12-19T02:24:42.613Z,941.72
2018-12-19T02:25:50.559Z,941.65
2018-12-19T02:26:58.635Z,941.65
2018-12-19T02:28:06.677Z,941.70
2018-12-19T02:29:15.150Z,941.70
2018-12-19T02:30:22.876Z,941.73
2018-12-19T02:31:30.835Z,941.73
2018-12-19T02:32:38.882Z,941.71
2018-12-19T02:33:46.945Z,941.75
2018-12-19T02:34:54.990Z,941.72
2018-12-19T02:36:03.140Z,941.77
2018-12-19T02:37:11.117Z,941.74
2018-12-19T02:38:19.156Z,941.73
2018-12-19T02:39:27.219Z,941.74
2018-12-19T02:40:35.226Z,941.74
2018-12-19T02:41:43.407Z,941.67
2018-12-19T02:42:51.356Z,941.68
2018-12-19T02:43:59.431Z,941.62
2018-12-19T02:45:07.552Z,941.68
2018-12-19T02:46:15.497Z,941.65
2018-12-19T02:47:23.668Z,941.67
2018-12-19T02:48:31.620Z,941.65
2018-12-19T02:49:39.683Z,941.57
2018-12-19T02:50:47.728Z,941.57
2018-12-19T02:51:55.770Z,941.52
2018-12-19T02:53:04.063Z,941.52
2018-12-19T02:54:11.882Z,941.47
2018-12-19T02:55:19.936Z,941.47
2018-12-19T02:56:27.972Z,941.47
2018-12-19T02:57:36.116Z,941.42
2018-12-19T02:58:44.089Z,941.44
2018-12-19T02:59:52.144Z,941.46
2018-12-19T03:01:00.290Z,941.42
2018-12-19T03:02:08.262Z,941.45
2018-12-19T03:03:16.396Z,941.44
2018-12-19T03:04:24.356Z,941.51
2018-12-19T03:05:32.411Z,941.48
2018-12-19T03:06:40.459Z,941.47
2018-12-19T03:07:48.608Z,941.47
2018-12-19T03:08:56.556Z,941.48
2018-12-19T03:10:04.610Z,941.47
2018-12-19T03:11:12.676Z,941.50
2018-12-19T03:12:20.735Z,941.48
2018-12-19T03:13:28.869Z,941.47
2018-12-19T03:14:36.829Z,941.47
2018-12-19T03:15:44.955Z,941.51
2018-12-19T03:16:52.920Z,941.47
2018-12-19T03:18:00.984Z,941.51
2018-12-19T03:19:09.142Z,941.47
2018-12-19T03:20:17.091Z,941.48
2018-12-19T03:21:25.118Z,941.45
2018-12-19T03:22:33.187Z,941.45
2018-12-19T03:23:41.249Z,941.37
2018-12-19T03:24:49.550Z,941.36
2018-12-19T03:25:57.327Z,941.37
2018-12-19T03:27:05.379Z,941.33
2018-12-19T03:28:13.465Z,941.30
2018-12-19T03:29:21.504Z,941.29
2018-12-19T03:30:29.652Z,941.24
2018-12-19T03:31:37.712Z,941.30
2018-12-19T03:32:45.650Z,941.25
2018-12-19T03:33:53.716Z,941.28
2018-12-19T03:35:01.774Z,941.31
2018-12-19T03:36:09.904Z,941.36
2018-12-19T03:37:17.863Z,941.28
2018-12-19T03:38:25.914Z,941.27
2018-12-19T03:39:33.976Z,941.26
2018-12-19T03:40:42.026Z,941.22
2018-12-19T03:41:50.182Z,941.23
2018-12-19T03:42:58.119Z,941.18
2018-12-19T03:44:06.190Z,941.24
2018-12-19T03:45:14.239Z,941.26
2018-12-19T03:46:22.291Z,941.25
2018-12-19T03:47:30.424Z,941.21
2018-12-19T03:48:38.403Z,941.26
2018-12-19T03:49:46.443Z,941.28
2018-12-19T03:50:54.503Z,941.27
2018-12-19T03:52:02.547Z,941.26
2018-12-19T03:53:10.692Z,941.27
2018-12-19T03:54:18.655Z,941.29
2018-12-19T03:55:26.713Z,941.29
2018-12-19T03:56:34.748Z,941.23
2018-12-19T03:57:42.925Z,941.22
2018-12-19T03:58:50.872Z,941.15
2018-12-19T03:59:58.941Z,941.19
2018-12-19T04:01:06.972Z,941.16
2018-12-19T04:02:15.024Z,941.20
2018-12-19T04:03:23.160Z,941.15
2018-12-19T04:04:31.128Z,941.16
2018-12-19T04:05:39.184Z,941.18
2018-12-19T04:06:47.399Z,941.12
2018-12-19T04:07:55.282Z,941.15
2018-12-19T04:09:03.423Z,941.12
2018-12-19T04:10:11.394Z,941.15
2018-12-19T04:11:19.444Z,941.15
2018-12-19T04:12:27.513Z,941.14
2018-12-19T04:13:35.522Z,941.12
2018-12-19T04:14:43.682Z,941.15
2018-12-19T04:15:51.658Z,941.14
2018-12-19T04:16:59.724Z,941.12
2018-12-19T04:18:07.759Z,941.22
2018-12-19T04:19:15.891Z,941.16
2018-12-19T04:20:23.950Z,941.21
2018-12-19T04:21:31.908Z,941.17
2018-12-19T04:22:39.969Z,941.21
2018-12-19T04:23:48.031Z,941.16
2018-12-19T04:24:56.068Z,941.17
2018-12-19T04:26:04.223Z,941.17
2018-12-19T04:27:12.176Z,941.17
2018-12-19T04:28:20.245Z,941.16
2018-12-19T04:29:28.286Z,941.17
2018-12-19T04:30:36.341Z,941.19
2018-12-19T04:31:44.490Z,941.19
2018-12-19T04:32:52.444Z,941.15
2018-12-19T04:34:00.500Z,941.19
2018-12-19T04:35:08.633Z,941.17
2018-12-19T04:36:16.597Z,941.15
2018-12-19T04:37:24.753Z,941.17
2018-12-19T04:38:32.693Z,941.15
2018-12-19T04:39:40.743Z,941.22
2018-12-19T04:40:48.822Z,941.14
2018-12-19T04:41:56.862Z,941.18
2018-12-19T04:43:04.994Z,941.20
2018-12-19T04:44:12.966Z,941.18
2018-12-19T04:45:21.068Z,941.17
2018-12-19T04:46:29.087Z,941.13
2018-12-19T04:47:37.212Z,941.16
2018-12-19T04:48:45.145Z,941.22
2018-12-19T04:49:53.225Z,941.25
2018-12-19T04:51:01.418Z,941.25
2018-12-19T04:52:09.326Z,941.20
2018-12-19T04:53:17.472Z,941.24
2018-12-19T04:54:25.434Z,941.17
2018-12-19T04:55:33.494Z,941.20
2018-12-19T04:56:41.524Z,941.16
2018-12-19T04:57:49.703Z,941.18
2018-12-19T04:58:57.641Z,941.26
2018-12-19T05:00:05.677Z,941.19
2018-12-19T05:01:13.753Z,941.23
2018-12-19T05:02:21.808Z,941.21
2018-12-19T05:03:29.855Z,941.20
2018-12-19T05:04:37.925Z,941.22
2018-12-19T05:05:45.957Z,941.24
2018-12-19T05:06:54.114Z,941.28
2018-12-19T05:08:02.169Z,941.24
2018-12-19T05:09:10.120Z,941.25
2018-12-19T05:10:18.188Z,941.26
2018-12-19T05:11:26.224Z,941.25
2018-12-19T05:12:34.284Z,941.24
2018-12-19T05:13:42.432Z,941.22
2018-12-19T05:14:50.399Z,941.24
2018-12-19T05:15:58.590Z,941.27
2018-12-19T05:17:06.491Z,941.31
2018-12-19T05:18:14.546Z,941.29
2018-12-19T05:19:22.691Z,941.25
2018-12-19T05:20:30.654Z,941.32
2018-12-19T05:21:38.690Z,941.28
2018-12-19T05:22:46.855Z,941.29
2018-12-19T05:23:54.814Z,941.30
2018-12-19T05:25:02.963Z,941.32
2018-12-19T05:26:10.915Z,941.35
2018-12-19T05:27:18.973Z,941.32
2018-12-19T05:28:27.024Z,941.31
2018-12-19T05:29:35.040Z,941.31
2018-12-19T05:30:43.210Z,941.29
2018-12-19T05:31:51.175Z,941.31
2018-12-19T05:32:59.261Z,941.31
2018-12-19T05:34:07.288Z,941.32
2018-12-19T05:35:15.325Z,941.30
2018-12-19T05:36:23.480Z,941.26
2018-12-19T05:37:31.529Z,941.22
2018-12-19T05:38:39.514Z,941.23
2018-12-19T05:39:47.538Z,941.28
2018-12-19T05:40:55.582Z,941.29
2018-12-19T05:42:03.736Z,941.29
2018-12-19T05:43:11.696Z,941.31
2018-12-19T05:44:19.755Z,941.32
2018-12-19T05:45:27.815Z,941.25
2018-12-19T05:46:35.848Z,941.29
2018-12-19T05:47:44.000Z,941.31
2018-12-19T05:48:51.976Z,941.29
2018-12-19T05:50:00.019Z,941.29
2018-12-19T05:51:08.064Z,941.28
2018-12-19T05:52:16.121Z,941.26
2018-12-19T05:53:24.265Z,941.26
2018-12-19T05:54:32.234Z,941.30
2018-12-19T05:55:40.296Z,941.33
2018-12-19T05:56:48.339Z,941.28
2018-12-19T05:57:56.635Z,941.26
2018-12-19T05:59:04.459Z,941.30
2018-12-19T06:00:12.503Z,941.31
2018-12-19T06:01:20.537Z,941.32
2018-12-19T06:02:28.598Z,941.36
2018-12-19T06:03:36.741Z,941.42
2018-12-19T06:04:44.702Z,941.43
2018-12-19T06:05:52.766Z,941.42
2018-12-19T06:07:00.812Z,941.49
2018-12-19T06:08:08.962Z,941.52
2018-12-19T06:09:16.997Z,941.48
2018-12-19T06:10:26.254Z,941.42
2018-12-19T06:11:33.026Z,941.44
2018-12-19T06:12:41.065Z,941.47
2018-12-19T06:13:49.120Z,941.59
2018-12-19T06:14:57.284Z,941.62
2018-12-19T06:16:05.198Z,941.62
2018-12-19T06:17:13.276Z,941.60
2018-12-19T06:18:21.326Z,941.61
2018-12-19T06:19:29.395Z,941.60
2018-12-19T06:20:37.544Z,941.61
2018-12-19T06:21:45.491Z,941.55
2018-12-19T06:22:53.699Z,941.52
2018-12-19T06:24:01.695Z,941.53
2018-12-19T06:25:09.651Z,941.61
2018-12-19T06:26:17.797Z,941.59
2018-12-19T06:27:25.757Z,941.59
2018-12-19T06:28:33.808Z,941.53
2018-12-19T06:29:41.874Z,941.58
2018-12-19T06:30:49.922Z,941.55
2018-12-19T06:31:58.073Z,941.61
2018-12-19T06:33:06.016Z,941.59
2018-12-19T06:34:14.093Z,941.61
2018-12-19T06:35:22.647Z,941.62
2018-12-19T06:36:30.172Z,941.62
2018-12-19T06:37:38.327Z,941.67
2018-12-19T06:38:46.592Z,941.62
2018-12-19T06:39:55.111Z,941.59
2018-12-19T06:41:02.392Z,941.59
2018-12-19T06:42:10.441Z,941.57
2018-12-19T06:43:18.593Z,941.59
2018-12-19T06:44:26.538Z,941.57
2018-12-19T06:45:34.604Z,941.61
2018-12-19T06:46:42.666Z,941.59
2018-12-19T06:47:50.808Z,941.59
2018-12-19T06:48:58.763Z,941.56
2018-12-19T06:50:06.825Z,941.52
2018-12-19T06:51:14.857Z,941.54
2018-12-19T06:52:22.931Z,941.60
2018-12-19T06:53:31.097Z,941.60
2018-12-19T06:54:39.022Z,941.54
2018-12-19T06:55:47.156Z,941.58
2018-12-19T06:56:55.121Z,941.54
2018-12-19T06:58:06.531Z,941.54
2018-12-19T06:59:11.333Z,941.53
2018-12-19T07:00:19.285Z,941.53
2018-12-19T07:01:27.353Z,941.58
2018-12-19T07:02:35.369Z,941.58
2018-12-19T07:03:43.432Z,941.62
2018-12-19T07:04:51.597Z,941.56
2018-12-19T07:05:59.552Z,941.58
2018-12-19T07:07:07.600Z,941.57
2018-12-19T07:08:15.654Z,941.54
2018-12-19T07:09:23.715Z,941.54
2018-12-19T07:10:31.997Z,941.47
2018-12-19T07:11:39.919Z,941.47
2018-12-19T07:12:47.866Z,941.57
2018-12-19T07:13:56.407Z,941.59
2018-12-19T07:15:03.977Z,941.61
2018-12-19T07:16:12.132Z,941.60
2018-12-19T07:17:20.101Z,941.60
2018-12-19T07:18:28.128Z,941.62
2018-12-19T07:19:36.181Z,941.68
2018-12-19T07:20:44.232Z,941.67
2018-12-19T07:21:52.407Z,941.71
2018-12-19T07:23:00.395Z,941.69
2018-12-19T07:24:08.400Z,941.62
2018-12-19T07:25:17.398Z,941.61
2018-12-19T07:26:24.506Z,941.63
2018-12-19T07:27:32.705Z,941.63
2018-12-19T07:28:40.623Z,941.70
2018-12-19T07:29:48.671Z,941.71
2018-12-19T07:30:56.770Z,941.72
2018-12-19T07:32:04.771Z,941.77
2018-12-19T07:33:12.911Z,941.76
2018-12-19T07:34:20.930Z,941.77
2018-12-19T07:35:28.919Z,941.83
2018-12-19T07:36:36.972Z,941.83
2018-12-19T07:37:45.110Z,941.85
2018-12-19T07:38:53.086Z,941.86
2018-12-19T07:40:01.545Z,941.84
2018-12-19T07:41:09.765Z,941.81
2018-12-19T07:42:17.883Z,941.83
2018-12-19T07:43:26.373Z,941.84
2018-12-19T07:44:33.348Z,941.82
2018-12-19T07:45:41.401Z,941.85
2018-12-19T07:46:49.468Z,941.80
2018-12-19T07:47:57.520Z,941.84
2018-12-19T07:49:05.633Z,941.85
2018-12-19T07:50:14.126Z,941.81
2018-12-19T07:51:21.698Z,941.79
2018-12-19T07:52:29.735Z,941.81
2018-12-19T07:53:37.782Z,941.82
2018-12-19T07:54:45.936Z,941.79
2018-12-19T07:55:53.890Z,941.73
2018-12-19T07:57:01.933Z,941.79
2018-12-19T07:58:10.073Z,941.76
2018-12-19T07:59:18.048Z,941.79
2018-12-19T08:00:27.511Z,941.73
2018-12-19T08:01:34.150Z,941.76
2018-12-19T08:02:42.209Z,941.70
2018-12-19T08:03:50.250Z,941.71
2018-12-19T08:04:58.314Z,941.72
2018-12-19T08:06:06.476Z,941.72
2018-12-19T08:07:14.426Z,941.76
2018-12-19T08:08:22.467Z,941.70
2018-12-19T08:09:30.528Z,941.75
2018-12-19T08:10:38.579Z,941.81
2018-12-19T08:11:46.729Z,941.80
2018-12-19T08:12:54.775Z,941.83
2018-12-19T08:14:02.734Z,941.80
2018-12-19T08:15:10.803Z,941.79
2018-12-19T08:16:18.836Z,941.81
2018-12-19T08:17:26.997Z,941.76
2018-12-19T08:18:34.924Z,941.82
2018-12-19T08:19:43.016Z,941.82
2018-12-19T08:20:51.054Z,941.86
2018-12-19T08:21:59.113Z,941.85
2018-12-19T08:23:07.261Z,941.84
2018-12-19T08:24:15.191Z,941.88
2018-12-19T08:25:23.494Z,941.85
2018-12-19T08:26:31.340Z,941.84
2018-12-19T08:27:39.365Z,941.85
2018-12-19T08:28:47.536Z,941.87
2018-12-19T08:29:55.487Z,941.81
2018-12-19T08:31:03.530Z,941.83
2018-12-19T08:32:11.720Z,941.85
2018-12-19T08:33:19.659Z,941.87
2018-12-19T08:34:28.103Z,941.85
2018-12-19T08:35:35.730Z,941.86
2018-12-19T08:36:43.815Z,941.90
2018-12-19T08:37:51.845Z,941.95
2018-12-19T08:38:59.940Z,942.02
2018-12-19T08:40:08.057Z,942.00
2018-12-19T08:41:16.005Z,942.04
2018-12-19T08:42:24.082Z,941.98
2018-12-19T08:43:32.135Z,941.93
2018-12-19T08:44:40.290Z,941.98
2018-12-19T08:45:48.331Z,941.96
2018-12-19T08:46:56.277Z,941.83
2018-12-19T08:48:04.340Z,941.96
2018-12-19T08:49:12.415Z,942.00
2018-12-19T08:50:20.442Z,941.89
2018-12-19T08:51:28.593Z,942.01
2018-12-19T08:52:36.932Z,941.98
2018-12-19T08:53:44.867Z,941.98
2018-12-19T08:54:52.663Z,942.05
2018-12-19T08:56:00.938Z,942.11
2018-12-19T08:57:08.946Z,942.05
2018-12-19T08:58:16.830Z,942.07
2018-12-19T08:59:25.033Z,942.06
2018-12-19T09:00:33.088Z,941.98
2018-12-19T09:01:41.276Z,941.99
2018-12-19T09:02:49.425Z,941.98
2018-12-19T09:03:57.200Z,941.96
2018-12-19T09:05:05.346Z,941.99
2018-12-19T09:06:13.475Z,941.95
2018-12-19T09:07:21.844Z,941.93
2018-12-19T09:08:29.688Z,941.88
2018-12-19T09:09:37.359Z,941.93
2018-12-19T09:10:45.404Z,941.94
2018-12-19T09:11:53.452Z,941.97
2018-12-19T09:13:02.304Z,941.97
2018-12-19T09:14:09.568Z,942.00
2018-12-19T09:15:17.644Z,942.02
2018-12-19T09:16:25.666Z,942.04
2018-12-19T09:17:33.740Z,942.04
2018-12-19T09:18:41.886Z,942.08
2018-12-19T09:19:49.843Z,942.05
2018-12-19T09:20:57.906Z,942.15
2018-12-19T09:22:05.939Z,942.17
2018-12-19T09:23:14.009Z,942.14
2018-12-19T09:24:22.156Z,942.08
2018-12-19T09:25:30.115Z,942.07
2018-12-19T09:26:38.159Z,942.02
2018-12-19T09:27:46.228Z,942.05
2018-12-19T09:28:54.296Z,942.08
2018-12-19T09:30:02.424Z,942.04
2018-12-19T09:31:10.383Z,942.01
2018-12-19T09:32:18.421Z,942.00
2018-12-19T09:33:27.465Z,941.96
2018-12-19T09:34:34.534Z,941.93
2018-12-19T09:35:42.706Z,941.89
2018-12-19T09:36:50.640Z,941.93
2018-12-19T09:37:58.714Z,941.94
2018-12-19T09:39:06.756Z,941.90
2018-12-19T09:40:15.240Z,941.96
2018-12-19T09:41:22.953Z,941.91
2018-12-19T09:42:30.926Z,941.95
2018-12-19T09:43:39.071Z,941.96
2018-12-19T09:44:47.026Z,941.95
2018-12-19T09:45:55.083Z,941.93
2018-12-19T09:47:03.218Z,941.97
2018-12-19T09:48:11.212Z,941.99
2018-12-19T09:49:19.251Z,942.02
2018-12-19T09:50:27.852Z,941.98
2018-12-19T09:51:35.368Z,941.97
2018-12-19T09:52:43.514Z,942.00
2018-12-19T09:53:51.454Z,942.01
2018-12-19T09:54:59.523Z,941.98
2018-12-19T09:56:07.688Z,941.96
2018-12-19T09:57:15.607Z,941.94
2018-12-19T09:58:23.770Z,941.92
2018-12-19T09:59:31.766Z,941.96
2018-12-19T10:00:39.787Z,941.89
2018-12-19T10:01:47.855Z,941.84
2018-12-19T10:02:56.002Z,941.82
2018-12-19T10:04:03.957Z,941.80
2018-12-19T10:05:12.030Z,941.74
2018-12-19T10:06:20.059Z,941.78
2018-12-19T10:07:28.118Z,941.78
2018-12-19T10:08:36.277Z,941.83
2018-12-19T10:09:44.223Z,941.83
2018-12-19T10:10:52.299Z,941.90
2018-12-19T10:12:00.440Z,941.88
2018-12-19T10:13:08.484Z,941.87
2018-12-19T10:14:16.460Z,941.88
2018-12-19T10:15:24.512Z,941.89
2018-12-19T10:16:32.567Z,941.77
2018-12-19T10:17:40.973Z,941.78
2018-12-19T10:18:48.771Z,941.80
2018-12-19T10:19:56.733Z,941.80
2018-12-19T10:21:04.777Z,941.75
2018-12-19T10:22:12.827Z,941.81
2018-12-19T10:23:20.910Z,941.84
2018-12-19T10:24:29.167Z,941.82
2018-12-19T10:25:37.005Z,941.82
2018-12-19T10:26:45.057Z,941.81
2018-12-19T10:27:53.243Z,941.80
2018-12-19T10:29:01.551Z,941.80
2018-12-19T10:30:09.329Z,941.80
2018-12-19T10:31:17.277Z,941.74
2018-12-19T10:32:25.320Z,941.73
2018-12-19T10:33:33.396Z,941.70
2018-12-19T10:34:41.450Z,941.65
2018-12-19T10:35:49.615Z,941.61
2018-12-19T10:36:57.560Z,941.58
2018-12-19T10:38:05.614Z,941.56
2018-12-19T10:39:13.661Z,941.52
2018-12-19T10:40:22.134Z,941.49
2018-12-19T10:41:29.885Z,941.52
2018-12-19T10:42:37.931Z,941.54
2018-12-19T10:43:45.887Z,941.58
2018-12-19T10:44:53.950Z,941.59
2018-12-19T10:46:02.107Z,941.60
2018-12-19T10:47:10.222Z,941.55
2018-12-19T10:48:18.227Z,941.56
2018-12-19T10:49:26.229Z,941.53
2018-12-19T10:50:34.239Z,941.43
2018-12-19T10:51:42.296Z,941.48
2018-12-19T10:52:50.715Z,941.36
2018-12-19T10:53:58.407Z,941.37
2018-12-19T10:55:06.459Z,941.36
2018-12-19T10:56:14.522Z,941.38
2018-12-19T10:57:22.563Z,941.44
2018-12-19T10:58:30.635Z,941.48
2018-12-19T10:59:38.693Z,941.49
2018-12-19T11:00:46.726Z,941.53
2018-12-19T11:01:55.381Z,941.55
2018-12-19T11:03:02.929Z,941.50
2018-12-19T11:04:10.899Z,941.56
2018-12-19T11:05:18.951Z,941.51
2018-12-19T11:06:27.007Z,941.48
2018-12-19T11:07:35.051Z,941.44
2018-12-19T11:08:43.213Z,941.36
2018-12-19T11:09:51.191Z,941.34
2018-12-19T11:10:59.244Z,941.30
2018-12-19T11:12:07.288Z,941.27
2018-12-19T11:13:15.420Z,941.35
2018-12-19T11:14:23.506Z,941.29
2018-12-19T11:15:31.439Z,941.26
2018-12-19T11:16:39.506Z,941.27
2018-12-19T11:17:47.608Z,941.36
2018-12-19T11:18:55.610Z,941.24
2018-12-19T11:20:03.810Z,941.15
2018-12-19T11:21:12.555Z,941.19
2018-12-19T11:22:19.794Z,941.17
2018-12-19T11:23:27.865Z,941.12
2018-12-19T11:24:35.909Z,941.29
2018-12-19T11:25:45.063Z,941.12
2018-12-19T11:26:52.013Z,941.13
2018-12-19T11:28:00.081Z,941.16
2018-12-19T11:29:08.224Z,941.05
2018-12-19T11:30:16.190Z,941.18
2018-12-19T11:31:24.491Z,941.03
2018-12-19T11:32:32.305Z,941.04
2018-12-19T11:33:40.378Z,941.06
2018-12-19T11:34:48.424Z,941.01
2018-12-19T11:35:56.486Z,941.05
2018-12-19T11:37:04.622Z,941.06
2018-12-19T11:38:12.585Z,941.02
2018-12-19T11:39:20.636Z,941.09
2018-12-19T11:40:29.163Z,940.98
2018-12-19T11:41:39.057Z,941.00
2018-12-19T11:42:44.892Z,940.97
2018-12-19T11:43:52.858Z,940.92
2018-12-19T11:45:01.026Z,940.94
2018-12-19T11:46:08.985Z,940.98
2018-12-19T11:47:17.262Z,940.97
2018-12-19T11:48:25.556Z,940.96
2018-12-19T11:49:33.148Z,940.96
2018-12-19T11:50:41.413Z,940.94
2018-12-19T11:51:49.375Z,940.92
2018-12-19T11:52:57.314Z,940.95
2018-12-19T11:54:05.605Z,940.98
2018-12-19T11:55:13.413Z,940.96
2018-12-19T11:56:21.673Z,941.00
2018-12-19T11:57:29.623Z,940.94
2018-12-19T11:58:37.629Z,940.98
2018-12-19T11:59:45.739Z,940.99
2018-12-19T12:00:53.816Z,940.97
2018-12-19T12:02:01.815Z,941.01
2018-12-19T12:03:09.936Z,941.01
2018-12-19T12:04:17.886Z,941.06
2018-12-19T12:05:26.048Z,941.03
2018-12-19T12:06:33.992Z,941.05
2018-12-19T12:07:42.062Z,941.01
2018-12-19T12:08:50.185Z,940.98
2018-12-19T12:09:58.180Z,940.95
2018-12-19T12:11:06.322Z,940.92
2018-12-19T12:12:14.429Z,940.89
2018-12-19T12:13:22.329Z,940.90
2018-12-19T12:14:30.390Z,940.85
2018-12-19T12:15:38.461Z,940.84
2018-12-19T12:16:46.690Z,940.86
2018-12-19T12:17:54.663Z,940.87
2018-12-19T12:19:02.630Z,940.86
2018-12-19T12:20:10.717Z,940.88
2018-12-19T12:21:18.736Z,940.91
2018-12-19T12:22:26.902Z,940.89
2018-12-19T12:23:34.902Z,940.87
2018-12-19T12:24:42.898Z,940.82
2018-12-19T12:25:51.163Z,940.87
2018-12-19T12:26:59.458Z,940.83
2018-12-19T12:28:07.169Z,940.80
2018-12-19T12:29:15.584Z,940.76
2018-12-19T12:30:23.196Z,940.75
2018-12-19T12:31:31.239Z,940.76
2018-12-19T12:32:39.401Z,940.73
2018-12-19T12:33:47.343Z,940.73
2018-12-19T12:34:55.399Z,940.67
2018-12-19T12:36:03.461Z,940.65
2018-12-19T12:37:11.535Z,940.59
2018-12-19T12:38:20.046Z,940.57
2018-12-19T12:39:27.637Z,940.51
2018-12-19T12:40:35.678Z,940.49
2018-12-19T12:41:43.753Z,940.45
2018-12-19T12:42:51.834Z,940.44
2018-12-19T12:43:59.965Z,940.42
2018-12-19T12:45:07.916Z,940.42
2018-12-19T12:46:15.968Z,940.40
2018-12-19T12:47:24.017Z,940.40
2018-12-19T12:48:32.103Z,940.40
2018-12-19T12:49:40.230Z,940.36
2018-12-19T12:50:48.198Z,940.35
2018-12-19T12:51:56.257Z,940.35
2018-12-19T12:53:04.324Z,940.33
2018-12-19T12:54:12.361Z,940.31
2018-12-19T12:55:20.511Z,940.29
2018-12-19T12:56:28.465Z,940.26
2018-12-19T12:57:36.534Z,940.20
2018-12-19T12:58:44.580Z,940.19
2018-12-19T12:59:52.637Z,940.17
2018-12-19T13:01:00.786Z,940.17
2018-12-19T13:02:08.747Z,940.13
2018-12-19T13:03:16.922Z,940.11
2018-12-19T13:04:24.846Z,940.09
2018-12-19T13:05:32.917Z,940.08
2018-12-19T13:06:41.079Z,940.10
2018-12-19T13:07:49.049Z,940.08
2018-12-19T13:08:57.085Z,940.09
2018-12-19T13:10:05.109Z,940.07
2018-12-19T13:11:13.197Z,940.04
2018-12-19T13:12:21.376Z,940.03
2018-12-19T13:13:29.305Z,940.02
2018-12-19T13:14:37.364Z,939.97
2018-12-19T13:15:45.403Z,939.97
2018-12-19T13:16:53.478Z,939.91
2018-12-19T13:18:01.645Z,939.91
2018-12-19T13:19:09.599Z,939.87
2018-12-19T13:20:17.628Z,939.85
2018-12-19T13:21:25.694Z,939.87
2018-12-19T13:22:33.877Z,939.77
2018-12-19T13:23:41.825Z,939.74
2018-12-19T13:24:49.875Z,939.69
2018-12-19T13:25:57.926Z,939.68
2018-12-19T13:27:05.974Z,939.65
2018-12-19T13:28:14.143Z,939.65
2018-12-19T13:29:22.102Z,939.64
2018-12-19T13:30:30.166Z,939.58
2018-12-19T13:31:38.215Z,939.57
2018-12-19T13:32:46.361Z,939.57
2018-12-19T13:33:54.417Z,939.55
2018-12-19T13:35:02.523Z,939.51
2018-12-19T13:36:10.416Z,939.47
2018-12-19T13:37:18.490Z,939.48
2018-12-19T13:38:26.546Z,939.46
2018-12-19T13:39:34.695Z,939.48
2018-12-19T13:40:42.695Z,939.43
2018-12-19T13:41:50.721Z,939.41
2018-12-19T13:42:58.767Z,939.37
2018-12-19T13:44:06.831Z,939.35
2018-12-19T13:45:14.967Z,939.32
2018-12-19T13:46:22.921Z,939.32
2018-12-19T13:47:30.989Z,939.30
2018-12-19T13:48:39.143Z,939.27
2018-12-19T13:49:47.094Z,939.25
2018-12-19T13:50:55.243Z,939.25
2018-12-19T13:52:03.213Z,939.23
2018-12-19T13:53:11.261Z,939.20
2018-12-19T13:54:19.330Z,939.22
2018-12-19T13:55:27.389Z,939.22
2018-12-19T13:56:35.508Z,939.20
2018-12-19T13:57:43.506Z,939.19
2018-12-19T13:58:51.545Z,939.16
2018-12-19T13:59:59.616Z,939.14
2018-12-19T14:01:07.663Z,939.15
2018-12-19T14:02:15.787Z,939.15
2018-12-19T14:03:23.774Z,939.18
2018-12-19T14:04:31.931Z,939.14
2018-12-19T14:05:39.890Z,939.14
2018-12-19T14:06:47.939Z,939.11
2018-12-19T14:07:56.053Z,939.09
2018-12-19T14:09:04.061Z,939.07